Canton, New York
Current Conditions -  °F | °C
As of 4:14 PM on Friday 19 Dec 2014 (Local Time) from KMSS Reporting Station
Scattered Clouds Scattered Clouds  
Wind Chill: 10°   Ceiling: Unl
Heat Index: 19°   Visibility: 10mi
Dew Point: 11°   Wind: 7mph
Humidity: 71%   Direction: 220°SW
Pressure: 30.2"   Gusts: NA
Location:  44.6°N, 75.17°W
Report Text: KMSS 192114Z AUTO 22006KT 10SM SCT020 M07/M12 A3020 RMK AO2 T10721117
Loading
Personal Weather Stations






























Interactive Weather Map New forecast layout! Learn more

10-Day Weather Forecast

Advertisements
Track Severe Weather on mobile